Time;durP1;ratioP1;P1;durP2;ratioP2;P2;SDS_P1;SDS_P2;PMS_P1;PMS_P2;Temp;Humidity;BMP_temperature;BMP_pressure;BME280_temperature;BME280_humidity;BME280_pressure;Samples;Min_cycle;Max_cycle;Signal;HPM_P1;HPM_P2
2021/09/20 00:01:04;;;;;;;1.95;1.85;;;;;;;16.07;75.11;95540.66;5051524;28;20223;-86
2021/09/20 00:03:30;;;;;;;1.70;1.60;;;;;;;16.11;75.13;95543.63;5051367;28;20710;-87
2021/09/20 00:05:58;;;;;;;1.58;1.48;;;;;;;16.12;74.55;95534.81;5051286;28;20205;-87
2021/09/20 00:08:25;;;;;;;1.70;1.60;;;;;;;16.10;74.88;95545.41;5051338;28;20222;-86
2021/09/20 00:10:51;;;;;;;1.70;1.60;;;;;;;16.11;74.81;95539.22;5051286;28;20208;-87
2021/09/20 00:13:18;;;;;;;1.63;1.52;;;;;;;16.12;74.79;95540.03;5051150;28;20594;-87
2021/09/20 00:15:44;;;;;;;1.95;1.80;;;;;;;16.04;75.41;95542.88;5065330;28;20222;-88
2021/09/20 00:18:11;;;;;;;1.58;1.48;;;;;;;16.03;75.32;95544.66;5070825;28;20315;-87
2021/09/20 00:20:38;;;;;;;1.60;1.50;;;;;;;15.99;75.83;95543.50;5070974;28;20668;-86
2021/09/20 00:23:05;;;;;;;1.73;1.63;;;;;;;15.99;75.73;95551.28;5071224;28;20196;-87
2021/09/20 00:25:32;;;;;;;1.63;1.52;;;;;;;16.00;75.05;95552.88;5070977;28;20205;-86
2021/09/20 00:27:58;;;;;;;1.58;1.48;;;;;;;15.96;75.76;95543.94;5060678;28;20971;-87
2021/09/20 00:30:25;;;;;;;3.17;1.80;;;;;;;15.99;74.86;95548.69;5051222;28;20580;-88
2021/09/20 00:32:51;;;;;;;1.65;1.55;;;;;;;15.99;75.06;95543.50;5051302;28;20210;-86
2021/09/20 00:35:18;;;;;;;1.70;1.60;;;;;;;15.98;75.03;95541.91;5050294;28;20252;-86
2021/09/20 00:37:44;;;;;;;1.40;1.30;;;;;;;15.94;75.58;95538.16;5050763;28;20226;-87
2021/09/20 00:40:13;;;;;;;1.70;1.60;;;;;;;15.91;75.65;95541.16;5050771;28;20229;-86
2021/09/20 00:42:40;;;;;;;2.65;1.90;;;;;;;15.85;76.36;95542.78;5050581;28;20664;-87
2021/09/20 00:45:09;;;;;;;2.00;1.90;;;;;;;15.78;76.94;95536.84;5050289;28;20194;-86
2021/09/20 00:47:37;;;;;;;1.80;1.70;;;;;;;15.80;76.58;95540.03;5050532;28;20226;-87
2021/09/20 00:50:05;;;;;;;1.98;1.88;;;;;;;15.83;76.25;95541.41;5050626;28;20198;-86
2021/09/20 00:52:32;;;;;;;1.90;1.80;;;;;;;15.85;76.28;95537.59;5050426;28;20734;-87
2021/09/20 00:54:58;;;;;;;2.53;2.33;;;;;;;15.79;76.36;95535.84;5064694;28;20217;-87
2021/09/20 00:57:26;;;;;;;2.08;1.88;;;;;;;15.81;76.27;95544.22;5070222;28;20229;-86
2021/09/20 00:59:53;;;;;;;2.53;2.22;;;;;;;15.80;76.01;95541.81;5069688;28;21074;-86
2021/09/20 01:02:19;;;;;;;2.30;2.10;;;;;;;15.80;75.63;95540.03;5070159;28;20688;-87
2021/09/20 01:04:45;;;;;;;2.20;2.00;;;;;;;15.79;75.63;95541.03;5070190;28;20208;-88
2021/09/20 01:07:15;;;;;;;2.15;2.05;;;;;;;15.69;76.89;95558.09;5070362;28;20216;-87
2021/09/20 01:09:41;;;;;;;2.00;1.90;;;;;;;15.72;76.68;95549.88;5070504;28;20204;-87
2021/09/20 01:12:08;;;;;;;2.80;1.85;;;;;;;15.78;76.26;95554.22;5070190;28;20223;-90
2021/09/20 01:14:36;;;;;;;2.00;1.90;;;;;;;15.83;75.89;95557.00;5065287;28;20224;-86
2021/09/20 01:17:03;;;;;;;2.30;1.90;;;;;;;15.80;76.38;95566.00;5050516;28;20225;-86
2021/09/20 01:19:30;;;;;;;2.42;2.22;;;;;;;15.73;76.73;95559.25;5050425;28;20212;-87
2021/09/20 01:22:00;;;;;;;2.20;2.10;;;;;;;15.65;76.82;95560.28;5050203;28;20204;-87
2021/09/20 01:24:28;;;;;;;2.28;2.10;;;;;;;15.61;76.86;95563.50;5049713;28;20691;-86
2021/09/20 01:26:59;;;;;;;2.10;2.00;;;;;;;15.63;76.83;95564.09;5049567;28;20257;-86
2021/09/20 01:29:25;;;;;;;3.65;2.28;;;;;;;15.62;76.52;95565.88;5050305;28;20201;-86
2021/09/20 01:31:52;;;;;;;2.10;2.00;;;;;;;15.61;76.67;95569.50;5050009;28;20212;-86
2021/09/20 01:34:18;;;;;;;1.98;1.88;;;;;;;15.55;77.56;95562.53;5049610;28;20229;-87
2021/09/20 01:36:46;;;;;;;1.92;1.83;;;;;;;15.65;77.07;95572.47;5049743;28;20659;-86
2021/09/20 01:39:16;;;;;;;1.90;1.80;;;;;;;15.67;77.29;95579.06;5049851;28;20207;-89
2021/09/20 01:41:45;;;;;;;1.90;1.80;;;;;;;15.73;77.02;95580.03;5050134;28;20207;-87
2021/09/20 01:44:11;;;;;;;3.03;2.00;;;;;;;15.76;76.40;95577.03;5049416;28;20209;-87
2021/09/20 01:46:37;;;;;;;1.88;1.77;;;;;;;15.73;76.92;95580.03;5053365;28;20200;-86
2021/09/20 01:49:04;;;;;;;2.15;1.95;;;;;;;15.63;77.49;95584.84;5054193;28;20202;-87
2021/09/20 01:51:30;;;;;;;2.63;1.80;;;;;;;15.64;77.59;95586.44;5054142;28;20601;-87
2021/09/20 01:53:59;;;;;;;3.78;2.42;;;;;;;15.61;78.31;95586.88;5059630;28;20196;-87
2021/09/20 01:56:26;;;;;;;2.20;2.03;;;;;;;15.60;77.89;95586.06;5073946;28;20774;-87
2021/09/20 01:58:53;;;;;;;2.10;1.90;;;;;;;15.59;77.68;95588.91;5073242;28;20232;-86
2021/09/20 02:01:20;;;;;;;2.17;2.08;;;;;;;15.66;77.37;95587.03;5073914;28;20602;-87
2021/09/20 02:03:46;;;;;;;2.85;2.20;;;;;;;15.63;78.02;95592.66;5073599;28;20204;-87
2021/09/20 02:06:13;;;;;;;2.22;2.13;;;;;;;15.59;78.36;95586.28;5073229;28;20825;-87
2021/09/20 02:08:39;;;;;;;2.10;2.00;;;;;;;15.58;78.58;95588.09;5073363;28;20250;-86
2021/09/20 02:11:07;;;;;;;1.83;1.73;;;;;;;15.57;78.37;95589.09;5073696;28;20258;-86
2021/09/20 02:13:33;;;;;;;2.65;2.10;;;;;;;15.62;78.15;95586.66;5058320;28;20237;-88
2021/09/20 02:16:01;;;;;;;2.40;2.20;;;;;;;15.62;77.82;95585.84;5069928;28;20418;-87
2021/09/20 02:18:28;;;;;;;2.10;2.00;;;;;;;15.56;78.63;95591.91;5073285;28;20247;-86
2021/09/20 02:20:54;;;;;;;2.88;2.35;;;;;;;15.51;78.76;95588.09;5073115;28;20204;-86
2021/09/20 02:23:21;;;;;;;2.30;2.10;;;;;;;15.59;78.33;95587.06;5073466;28;20630;-88
2021/09/20 02:25:48;;;;;;;2.50;2.30;;;;;;;15.55;78.93;95588.47;5073288;28;20258;-87
2021/09/20 02:28:16;;;;;;;3.05;2.75;;;;;;;15.45;79.09;95585.50;5073375;28;20232;-87
2021/09/20 02:30:42;;;;;;;2.92;2.72;;;;;;;15.48;78.14;95587.69;5073509;28;20197;-87
2021/09/20 02:33:10;;;;;;;5.38;4.63;;;;;;;15.49;77.20;95590.09;5073296;28;20621;-87
2021/09/20 02:35:36;;;;;;;6.07;4.63;;;;;;;15.55;76.96;95585.88;5072781;28;20765;-87
2021/09/20 02:38:03;;;;;;;5.45;4.85;;;;;;;15.54;76.72;95592.06;5072909;28;20217;-90
2021/09/20 02:40:30;;;;;;;5.80;5.38;;;;;;;15.50;76.90;95588.28;5073045;28;20200;-87
2021/09/20 02:42:56;;;;;;;7.35;5.55;;;;;;;15.52;76.36;95583.69;5072771;28;20197;-87
2021/09/20 02:45:23;;;;;;;5.90;5.38;;;;;;;15.57;75.93;95589.09;5072619;28;20197;-86
2021/09/20 02:47:49;;;;;;;5.55;5.15;;;;;;;15.58;75.22;95600.28;5072599;28;20253;-87
2021/09/20 02:50:17;;;;;;;6.28;5.70;;;;;;;15.45;75.34;95588.91;5072663;28;20204;-88
2021/09/20 02:52:43;;;;;;;6.32;5.82;;;;;;;15.29;76.39;95588.56;5072574;28;20200;-86
2021/09/20 02:55:11;;;;;;;6.23;5.63;;;;;;;15.35;76.12;95596.34;5056236;28;20595;-87
2021/09/20 02:57:38;;;;;;;6.00;5.50;;;;;;;15.31;75.90;95589.97;5051288;28;20229;-88
2021/09/20 03:00:05;;;;;;;6.17;5.67;;;;;;;15.31;76.26;95599.53;5052489;28;20208;-87
2021/09/20 03:02:32;;;;;;;7.88;5.78;;;;;;;15.40;75.91;95599.09;5052405;28;20680;-88
2021/09/20 03:04:58;;;;;;;6.60;6.00;;;;;;;15.38;75.67;95602.94;5052294;28;20205;-87
2021/09/20 03:07:26;;;;;;;6.67;5.77;;;;;;;15.40;75.22;95600.88;5051770;28;20221;-86
2021/09/20 03:09:52;;;;;;;6.60;6.10;;;;;;;15.35;75.03;95601.53;5052536;28;20208;-86
2021/09/20 03:12:19;;;;;;;6.90;6.30;;;;;;;15.35;75.14;95604.13;5052701;28;20205;-87
2021/09/20 03:14:45;;;;;;;6.30;5.80;;;;;;;15.26;76.20;95601.94;5058786;28;20220;-87
2021/09/20 03:17:12;;;;;;;7.23;6.63;;;;;;;15.16;76.26;95605.00;5072373;28;20232;-86
2021/09/20 03:19:38;;;;;;;6.70;6.10;;;;;;;15.17;76.74;95604.00;5072596;28;20196;-89
2021/09/20 03:22:05;;;;;;;7.40;6.70;;;;;;;15.15;75.71;95606.00;5072027;28;20609;-88
2021/09/20 03:24:32;;;;;;;7.57;6.83;;;;;;;15.09;76.16;95612.78;5071982;28;20227;-86
2021/09/20 03:26:59;;;;;;;7.60;6.90;;;;;;;15.01;76.60;95612.97;5071787;28;20231;-86
2021/09/20 03:29:25;;;;;;;7.93;7.23;;;;;;;15.05;75.34;95619.38;5071974;28;20212;-86
2021/09/20 03:31:52;;;;;;;6.93;6.33;;;;;;;15.05;75.40;95614.19;5071827;28;20209;-87
2021/09/20 03:34:18;;;;;;;7.00;6.50;;;;;;;15.09;75.67;95612.78;5071898;28;20208;-87
2021/09/20 03:36:45;;;;;;;7.23;6.63;;;;;;;15.10;75.25;95619.56;5071773;28;20225;-86
2021/09/20 03:39:11;;;;;;;8.07;7.37;;;;;;;14.98;75.51;95603.03;5071865;28;20663;-86
2021/09/20 03:41:39;;;;;;;7.40;6.70;;;;;;;14.94;75.68;95612.22;5071783;28;20196;-86
2021/09/20 03:44:06;;;;;;;7.60;6.90;;;;;;;14.78;77.19;95613.44;5071340;28;20224;-86
2021/09/20 03:46:33;;;;;;;9.00;8.10;;;;;;;14.74;78.54;95619.22;5071623;28;20258;-89
2021/09/20 03:48:59;;;;;;;8.73;7.83;;;;;;;14.73;78.74;95618.44;5071820;28;20377;-86
2021/09/20 03:51:26;;;;;;;7.90;7.10;;;;;;;14.74;78.22;95624.41;5071787;28;20208;-87
2021/09/20 03:53:52;;;;;;;7.93;7.33;;;;;;;14.73;78.74;95621.03;5066287;28;20213;-87
2021/09/20 03:56:19;;;;;;;8.60;7.90;;;;;;;14.81;78.37;95622.63;5051678;28;20233;-86
2021/09/20 03:58:47;;;;;;;8.60;7.90;;;;;;;14.91;77.48;95629.97;5050960;28;20222;-87
2021/09/20 04:01:13;;;;;;;8.47;7.63;;;;;;;14.91;78.40;95627.38;5051768;28;20210;-88
2021/09/20 04:03:40;;;;;;;7.50;6.80;;;;;;;14.95;78.02;95631.16;5051588;28;20201;-87
2021/09/20 04:06:06;;;;;;;8.20;7.50;;;;;;;14.98;77.32;95634.16;5050344;28;20562;-87
2021/09/20 04:08:32;;;;;;;8.20;7.50;;;;;;;14.90;76.91;95628.38;5050110;28;20217;-86
2021/09/20 04:11:00;;;;;;;8.47;7.83;;;;;;;14.91;76.09;95628.19;5051272;28;20197;-88
2021/09/20 04:13:26;;;;;;;8.60;7.83;;;;;;;14.77;76.86;95622.22;5050976;28;20194;-87
2021/09/20 04:15:55;;;;;;;9.30;8.07;;;;;;;14.76;76.41;95628.41;5066424;28;20216;-86
2021/09/20 04:18:22;;;;;;;9.53;8.63;;;;;;;14.59;77.49;95634.19;5071108;28;20233;-86
2021/09/20 04:20:51;;;;;;;8.93;7.90;;;;;;;14.62;77.42;95629.41;5071050;28;20224;-86
2021/09/20 04:23:18;;;;;;;8.60;7.80;;;;;;;14.71;77.41;95628.19;5071097;28;20666;-86
2021/09/20 04:25:45;;;;;;;8.83;7.93;;;;;;;14.66;77.73;95638.38;5070694;28;20254;-87
2021/09/20 04:28:11;;;;;;;8.90;8.10;;;;;;;14.62;77.88;95637.19;5058683;28;20238;-86
2021/09/20 04:30:38;;;;;;;8.57;7.80;;;;;;;14.55;77.92;95638.19;5051353;28;20201;-87
2021/09/20 04:33:05;;;;;;;9.20;8.30;;;;;;;14.54;77.23;95639.16;5051300;28;20255;-88
2021/09/20 04:35:32;;;;;;;8.97;8.23;;;;;;;14.51;77.14;95645.53;5050823;28;20225;-89
2021/09/20 04:37:58;;;;;;;9.50;8.67;;;;;;;14.53;77.51;95646.16;5050859;28;20241;-87
2021/09/20 04:40:25;;;;;;;9.00;8.30;;;;;;;14.50;77.82;95652.50;5050677;28;20262;-86
2021/09/20 04:42:51;;;;;;;8.90;7.90;;;;;;;14.54;77.88;95649.53;5050896;28;20209;-86
2021/09/20 04:45:17;;;;;;;8.40;7.70;;;;;;;14.61;77.75;95661.50;5050568;28;20244;-86
2021/09/20 04:47:44;;;;;;;8.63;7.83;;;;;;;14.73;77.51;95662.50;5050883;28;20256;-86
2021/09/20 04:50:12;;;;;;;8.40;7.70;;;;;;;14.82;76.89;95660.47;5050370;28;20205;-87
2021/09/20 04:52:38;;;;;;;8.50;7.73;;;;;;;14.88;76.26;95659.69;5050401;28;20255;-88
2021/09/20 04:55:06;;;;;;;8.30;7.60;;;;;;;14.77;76.58;95668.06;5065227;28;20200;-87
2021/09/20 04:57:32;;;;;;;8.80;8.10;;;;;;;14.74;75.78;95661.50;5069922;28;20884;-87
2021/09/20 04:59:58;;;;;;;9.20;8.30;;;;;;;14.63;76.56;95664.66;5070207;28;20636;-87
2021/09/20 05:02:25;;;;;;;8.90;8.10;;;;;;;14.57;76.95;95668.06;5070632;28;20211;-86
2021/09/20 05:04:51;;;;;;;9.23;8.43;;;;;;;14.63;77.10;95669.06;5070344;28;20234;-88
2021/09/20 05:07:19;;;;;;;9.50;8.70;;;;;;;14.60;78.54;95672.06;5070169;28;20221;-87
2021/09/20 05:09:45;;;;;;;10.57;9.57;;;;;;;14.59;78.42;95671.28;5070231;28;20990;-87
2021/09/20 05:12:12;;;;;;;9.33;8.53;;;;;;;14.60;78.22;95674.66;5065990;28;20205;-87
2021/09/20 05:14:38;;;;;;;8.87;8.07;;;;;;;14.47;78.12;95673.63;5054843;28;20197;-86
2021/09/20 05:17:05;;;;;;;8.70;7.90;;;;;;;14.54;77.75;95681.44;5050304;28;20244;-88
2021/09/20 05:19:31;;;;;;;8.70;7.87;;;;;;;14.51;77.47;95679.22;5049909;28;20251;-87
2021/09/20 05:21:58;;;;;;;8.40;7.70;;;;;;;14.60;77.51;95682.44;5050222;28;20205;-86
2021/09/20 05:24:26;;;;;;;9.10;8.30;;;;;;;14.71;77.38;95685.22;5050009;28;20224;-86
2021/09/20 05:26:53;;;;;;;8.70;7.80;;;;;;;14.66;76.97;95689.41;5049746;28;20205;-86
2021/09/20 05:29:19;;;;;;;8.70;7.90;;;;;;;14.79;76.03;95697.19;5050025;28;20259;-87
2021/09/20 05:31:47;;;;;;;8.53;7.80;;;;;;;14.80;75.23;95694.41;5049983;28;20811;-87
2021/09/20 05:34:13;;;;;;;8.07;7.37;;;;;;;14.66;75.97;95695.38;5049617;28;20600;-87
2021/09/20 05:36:40;;;;;;;8.43;7.70;;;;;;;14.55;76.86;95690.00;5049485;28;20217;-88
2021/09/20 05:39:06;;;;;;;8.27;7.57;;;;;;;14.60;76.89;95688.41;5049833;28;20205;-87
2021/09/20 05:41:34;;;;;;;9.40;8.50;;;;;;;14.61;77.18;95692.59;5049793;28;20201;-86
2021/09/20 05:44:00;;;;;;;9.07;8.27;;;;;;;14.61;78.15;95696.97;5049409;28;20216;-87
2021/09/20 05:46:27;;;;;;;9.47;8.17;;;;;;;14.62;78.36;95694.19;5049818;28;20204;-86
2021/09/20 05:48:53;;;;;;;8.60;7.83;;;;;;;14.73;77.24;95693.59;5049611;28;20278;-89
2021/09/20 05:51:20;;;;;;;8.63;7.80;;;;;;;14.77;76.12;95692.19;5049557;28;20209;-87
2021/09/20 05:53:46;;;;;;;9.07;8.27;;;;;;;14.62;77.10;95694.19;5054772;28;20553;-86
2021/09/20 05:56:13;;;;;;;8.43;7.70;;;;;;;14.73;77.10;95697.97;5069950;28;20270;-86
2021/09/20 05:58:41;;;;;;;9.03;8.23;;;;;;;14.70;75.02;95698.38;5052952;28;20229;-89
2021/09/20 06:01:08;;;;;;;9.50;8.50;;;;;;;14.73;76.00;95703.16;5049898;28;20193;-88
2021/09/20 06:03:35;;;;;;;9.27;8.47;;;;;;;14.74;75.67;95708.16;5049784;28;20247;-87
2021/09/20 06:06:01;;;;;;;8.77;7.97;;;;;;;14.83;75.22;95708.72;5049364;28;20746;-87
2021/09/20 06:08:28;;;;;;;8.83;7.97;;;;;;;14.90;75.69;95713.94;5049437;28;20624;-88
2021/09/20 06:10:54;;;;;;;9.23;8.43;;;;;;;14.84;75.03;95710.34;5049435;28;20668;-88
2021/09/20 06:13:21;;;;;;;11.23;7.80;;;;;;;14.91;74.96;95708.53;5049478;28;20198;-87
2021/09/20 06:15:50;;;;;;;9.37;8.53;;;;;;;14.92;74.59;95711.94;5064253;28;20221;-86
2021/09/20 06:18:16;;;;;;;9.27;8.20;;;;;;;14.75;75.26;95707.16;5069303;28;20224;-88
2021/09/20 06:20:43;;;;;;;11.17;8.30;;;;;;;14.82;75.15;95713.13;5069413;28;20675;-87
2021/09/20 06:23:09;;;;;;;9.10;8.30;;;;;;;14.88;75.33;95719.31;5069491;28;20205;-86
2021/09/20 06:25:36;;;;;;;9.30;8.33;;;;;;;14.92;74.95;95723.09;5069373;28;20201;-87
2021/09/20 06:28:02;;;;;;;9.43;8.43;;;;;;;14.92;74.78;95719.72;5058322;28;20253;-86
2021/09/20 06:30:28;;;;;;;10.53;9.50;;;;;;;14.86;75.64;95724.69;5049303;28;20202;-87
2021/09/20 06:32:56;;;;;;;9.97;8.87;;;;;;;14.93;75.73;95721.31;5051545;28;20289;-87
2021/09/20 06:35:23;;;;;;;9.80;8.90;;;;;;;14.93;76.40;95716.13;5053227;28;20285;-87
2021/09/20 06:37:49;;;;;;;10.20;9.20;;;;;;;14.98;76.70;95716.31;5052651;28;20232;-86
2021/09/20 06:40:16;;;;;;;10.47;9.47;;;;;;;14.86;77.20;95719.50;5053290;28;20622;-86
2021/09/20 06:42:42;;;;;;;10.40;9.13;;;;;;;14.83;76.81;95725.09;5053435;28;20685;-86
2021/09/20 06:45:09;;;;;;;10.90;9.90;;;;;;;14.77;77.42;95720.72;5053036;28;20732;-86
2021/09/20 06:47:36;;;;;;;10.37;9.33;;;;;;;14.65;77.96;95721.47;5052967;28;20225;-86
2021/09/20 06:50:04;;;;;;;10.97;9.80;;;;;;;14.71;77.98;95724.09;5053212;28;20205;-87
2021/09/20 06:52:31;;;;;;;10.60;9.50;;;;;;;14.76;78.04;95726.91;5053059;28;20769;-86
2021/09/20 06:54:58;;;;;;;10.93;9.83;;;;;;;14.73;78.35;95724.69;5052513;28;20201;-86
2021/09/20 06:57:24;;;;;;;11.57;9.73;;;;;;;14.73;78.55;95724.69;5052488;28;20226;-86
2021/09/20 06:59:50;;;;;;;11.20;10.10;;;;;;;14.72;78.26;95730.88;5052089;28;20225;-87
2021/09/20 07:02:17;;;;;;;14.50;10.77;;;;;;;14.55;81.06;95734.03;5052627;28;20228;-89
2021/09/20 07:04:43;;;;;;;11.33;10.13;;;;;;;14.51;82.24;95728.44;5052559;28;20592;-86
2021/09/20 07:07:14;;;;;;;9.70;8.80;;;;;;;14.55;82.82;95727.06;5052581;28;20654;-85
2021/09/20 07:09:41;;;;;;;10.13;9.27;;;;;;;14.65;77.54;95729.25;5052563;28;20208;-84
2021/09/20 07:12:07;;;;;;;11.07;9.13;;;;;;;14.64;75.90;95730.25;5052359;28;20591;-84
2021/09/20 07:14:34;;;;;;;9.50;8.60;;;;;;;14.69;76.71;95738.25;5057036;28;20284;-84
2021/09/20 07:17:00;;;;;;;9.20;8.40;;;;;;;14.73;75.40;95739.44;5072433;28;20236;-84
2021/09/20 07:19:27;;;;;;;8.90;8.00;;;;;;;14.78;75.24;95729.28;5073237;28;20308;-84
2021/09/20 07:21:53;;;;;;;10.60;9.53;;;;;;;14.77;76.47;95736.28;5072978;28;20748;-84
2021/09/20 07:24:21;;;;;;;10.00;9.00;;;;;;;14.73;78.09;95742.03;5072325;28;20204;-84
2021/09/20 07:26:48;;;;;;;10.40;9.40;;;;;;;14.81;77.86;95737.47;5071252;28;20197;-84
2021/09/20 07:29:14;;;;;;;11.83;10.73;;;;;;;14.81;77.35;95739.28;5046040;28;20193;-84
2021/09/20 07:31:41;;;;;;;10.73;9.73;;;;;;;14.83;77.22;95752.81;5052304;28;20582;-85
2021/09/20 07:34:07;;;;;;;11.30;10.30;;;;;;;14.80;77.06;95753.22;5052044;28;20201;-84
2021/09/20 07:36:36;;;;;;;10.97;9.93;;;;;;;14.81;76.65;95750.44;5051904;28;20228;-85
2021/09/20 07:39:02;;;;;;;10.60;9.50;;;;;;;14.83;76.70;95756.19;5052078;28;20259;-84
2021/09/20 07:41:30;;;;;;;10.73;9.73;;;;;;;14.76;77.27;95752.81;5051720;28;20205;-84
2021/09/20 07:43:56;;;;;;;12.00;9.93;;;;;;;14.81;77.24;95749.63;5051188;28;20262;-84
2021/09/20 07:46:23;;;;;;;11.43;10.43;;;;;;;14.85;77.32;95758.59;5051835;28;20206;-84
2021/09/20 07:48:50;;;;;;;12.17;10.50;;;;;;;14.83;78.65;95763.16;5051954;28;20366;-84
2021/09/20 07:51:17;;;;;;;13.53;10.60;;;;;;;14.85;78.98;95758.59;5051822;28;20213;-84
2021/09/20 07:53:43;;;;;;;11.60;10.40;;;;;;;14.85;78.77;95763.78;5051488;28;20680;-84
2021/09/20 07:56:10;;;;;;;11.30;10.20;;;;;;;14.75;79.09;95776.34;5051239;28;20222;-84
2021/09/20 07:58:38;;;;;;;12.13;10.33;;;;;;;14.69;78.95;95771.94;5051154;28;20222;-84
2021/09/20 08:01:04;;;;;;;11.30;10.20;;;;;;;14.75;78.34;95787.50;5051732;28;20213;-84
2021/09/20 08:03:31;;;;;;;10.80;9.60;;;;;;;14.83;78.46;95774.34;5051843;28;20208;-84
2021/09/20 08:05:57;;;;;;;11.43;10.33;;;;;;;14.81;77.68;95781.53;5051376;28;20224;-84
2021/09/20 08:08:24;;;;;;;11.00;9.90;;;;;;;14.74;77.04;95783.31;5052046;28;20221;-85
2021/09/20 08:10:51;;;;;;;10.40;9.50;;;;;;;14.78;75.54;95784.53;5051347;28;20205;-84
2021/09/20 08:13:19;;;;;;;10.47;9.50;;;;;;;14.80;76.19;95786.91;5051408;28;20201;-84
2021/09/20 08:15:47;;;;;;;10.23;9.33;;;;;;;14.83;74.10;95787.31;5065765;28;20197;-84
2021/09/20 08:18:14;;;;;;;10.57;9.50;;;;;;;14.75;75.30;95784.91;5070972;28;20275;-84
2021/09/20 08:20:41;;;;;;;9.70;8.77;;;;;;;14.83;74.79;95789.91;5071024;28;20672;-84
2021/09/20 08:23:08;;;;;;;9.33;8.37;;;;;;;14.97;74.08;95793.31;5057209;28;20205;-84
2021/09/20 08:25:35;;;;;;;10.90;8.17;;;;;;;14.97;72.33;95789.94;5050453;28;20584;-85
2021/09/20 08:28:02;;;;;;;8.90;8.07;;;;;;;14.92;72.88;95790.50;5050704;28;20233;-84
2021/09/20 08:30:29;;;;;;;9.77;8.77;;;;;;;14.89;72.21;95803.06;5050920;28;20201;-85
2021/09/20 08:32:57;;;;;;;9.80;8.70;;;;;;;14.96;71.65;95793.50;5050846;28;20228;-84
2021/09/20 08:35:23;;;;;;;9.27;8.37;;;;;;;14.97;71.28;95800.31;5050592;28;20209;-84
2021/09/20 08:37:52;;;;;;;9.57;8.77;;;;;;;14.84;70.95;95798.47;5050404;28;20241;-84
2021/09/20 08:40:19;;;;;;;9.00;8.20;;;;;;;14.75;70.69;95800.47;5051096;28;20202;-84
2021/09/20 08:42:46;;;;;;;9.13;8.33;;;;;;;14.88;69.28;95807.47;5050684;28;20693;-84
2021/09/20 08:45:16;;;;;;;9.33;8.10;;;;;;;14.96;69.69;95796.09;5050814;28;20201;-84
2021/09/20 08:47:46;;;;;;;8.60;7.73;;;;;;;15.07;68.96;95792.91;5050897;28;20229;-85
2021/09/20 08:50:15;;;;;;;8.03;7.30;;;;;;;15.13;69.97;95802.50;5050711;28;20254;-84
2021/09/20 08:52:41;;;;;;;8.47;7.73;;;;;;;15.23;69.54;95802.88;5050148;28;20201;-84
2021/09/20 08:55:09;;;;;;;9.00;8.20;;;;;;;15.24;69.36;95806.28;5065718;28;20205;-84
2021/09/20 08:57:36;;;;;;;9.10;7.93;;;;;;;15.38;68.95;95810.50;5069842;28;20575;-84
2021/09/20 09:00:04;;;;;;;9.30;8.13;;;;;;;15.49;69.42;95815.84;5070382;28;20208;-84
2021/09/20 09:02:32;;;;;;;9.73;8.00;;;;;;;15.59;70.04;95815.47;5070371;28;20201;-84
2021/09/20 09:05:12;;;;;;;9.17;8.20;;;;;;;15.71;69.04;95820.84;5069955;28;20208;-84
2021/09/20 09:07:43;;;;;;;8.57;7.68;;;;;;;15.84;68.88;95815.63;5070380;28;20281;-84
2021/09/20 09:10:11;;;;;;;8.67;7.80;;;;;;;15.92;68.44;95807.63;5070351;28;20227;-84
2021/09/20 09:12:38;;;;;;;8.90;8.05;;;;;;;15.95;68.65;95816.81;5070103;28;20200;-84
2021/09/20 09:15:08;;;;;;;8.90;7.47;;;;;;;16.02;68.62;95817.56;5060642;28;20679;-84
2021/09/20 09:17:36;;;;;;;9.35;8.45;;;;;;;16.10;68.26;95819.97;5049861;28;20279;-84
2021/09/20 09:20:07;;;;;;;9.57;8.48;;;;;;;16.22;68.09;95816.50;5050329;28;20645;-84
2021/09/20 09:22:47;;;;;;;9.13;8.32;;;;;;;16.21;67.29;95814.91;5050055;28;20205;-84
2021/09/20 09:25:20;;;;;;;9.75;8.85;;;;;;;16.10;67.82;95818.16;5049908;28;20698;-84
2021/09/20 09:27:48;;;;;;;8.68;7.88;;;;;;;16.20;68.09;95815.91;5049972;28;20225;-84
2021/09/20 09:30:19;;;;;;;8.70;7.88;;;;;;;16.40;68.08;95813.25;5050219;28;20209;-84
2021/09/20 09:32:46;;;;;;;8.90;8.10;;;;;;;16.54;67.65;95821.78;5050477;28;20201;-85
2021/09/20 09:35:15;;;;;;;10.20;8.10;;;;;;;16.64;67.27;95814.38;5050103;28;20205;-85
2021/09/20 09:37:45;;;;;;;8.50;7.68;;;;;;;16.64;67.75;95811.75;5049716;28;20221;-84
2021/09/20 09:40:16;;;;;;;9.10;8.18;;;;;;;16.70;67.20;95813.53;5049813;28;20208;-85
2021/09/20 09:42:43;;;;;;;8.80;7.93;;;;;;;16.80;66.38;95815.66;5049525;28;20215;-84
2021/09/20 09:45:32;;;;;;;9.32;7.88;;;;;;;16.75;64.81;95811.09;5049629;28;20198;-84
2021/09/20 09:48:12;;;;;;;8.32;7.57;;;;;;;16.62;66.41;95811.13;5045103;28;20220;-84
2021/09/20 09:50:43;;;;;;;8.18;7.47;;;;;;;16.69;66.56;95811.16;5049815;28;20205;-84
2021/09/20 09:53:22;;;;;;;8.27;7.57;;;;;;;16.93;65.28;95805.19;5049534;28;20213;-84
2021/09/20 09:55:49;;;;;;;8.18;7.40;;;;;;;17.14;64.92;95804.81;5029746;28;20213;-85
2021/09/20 09:58:16;;;;;;;9.25;8.43;;;;;;;17.16;64.30;95802.81;5029198;28;20222;-84
2021/09/20 10:00:46;;;;;;;10.20;7.80;;;;;;;17.04;64.07;95803.72;5029678;28;20889;-84
2021/09/20 10:03:13;;;;;;;8.30;7.43;;;;;;;17.02;63.87;95801.31;5029735;28;20198;-84
2021/09/20 10:05:39;;;;;;;8.05;7.30;;;;;;;17.03;64.26;95812.53;5029818;28;20217;-85
2021/09/20 10:08:12;;;;;;;9.00;8.10;;;;;;;16.74;65.62;95806.88;5033746;28;20218;-84
2021/09/20 10:10:41;;;;;;;8.00;7.30;;;;;;;16.73;66.36;95812.31;5034063;28;20844;-85
2021/09/20 10:13:08;;;;;;;10.10;7.13;;;;;;;16.69;65.22;95808.53;5044538;28;20263;-83
2021/09/20 10:15:36;;;;;;;8.70;7.90;;;;;;;16.80;64.58;95810.47;5058048;28;20263;-84
2021/09/20 10:18:03;;;;;;;8.20;7.45;;;;;;;16.83;64.08;95800.44;5053309;28;20363;-84
2021/09/20 10:20:30;;;;;;;8.50;7.60;;;;;;;16.73;63.14;95807.13;5053624;28;20209;-83
2021/09/20 10:22:57;;;;;;;9.48;8.48;;;;;;;16.59;63.56;95811.56;5053258;28;20205;-84
2021/09/20 10:25:28;;;;;;;11.75;7.47;;;;;;;16.59;64.81;95801.16;5053140;28;20201;-84
2021/09/20 10:27:55;;;;;;;9.98;7.80;;;;;;;16.57;63.83;95805.75;5053070;28;20279;-84
2021/09/20 10:30:25;;;;;;;8.05;7.32;;;;;;;16.63;63.82;95802.38;5076044;22;20224;-88
2021/09/20 10:32:53;;;;;;;7.82;6.82;;;;;;;16.76;63.44;95799.69;5073236;28;20208;-88
2021/09/20 10:35:29;;;;;;;7.75;7.00;;;;;;;16.75;62.62;95802.50;5072833;28;20200;-88
2021/09/20 10:37:58;;;;;;;6.85;6.15;;;;;;;16.54;61.01;95803.59;5073053;28;20299;-89
2021/09/20 10:40:30;;;;;;;6.45;5.95;;;;;;;16.54;62.83;95804.41;5073025;28;20607;-88
2021/09/20 10:43:04;;;;;;;6.78;5.72;;;;;;;16.61;62.47;95795.75;5073244;28;20197;-88
2021/09/20 10:45:52;;;;;;;6.78;6.00;;;;;;;16.57;61.23;95797.97;5073053;28;20204;-88
2021/09/20 10:48:33;;;;;;;8.02;5.95;;;;;;;16.72;62.25;95795.94;5073197;28;20266;-88
2021/09/20 10:51:04;;;;;;;8.00;6.30;;;;;;;16.81;63.14;95797.25;5073124;28;20221;-88
2021/09/20 10:53:35;;;;;;;7.30;6.70;;;;;;;16.84;62.66;95790.84;5072261;28;20200;-88
2021/09/20 10:56:33;;;;;;;8.05;7.25;;;;;;;16.64;63.53;95796.16;5052738;28;20331;-88
2021/09/20 10:59:18;;;;;;;8.50;7.15;;;;;;;16.60;63.77;95797.53;5040162;28;20245;-89
2021/09/20 11:01:55;;;;;;;6.80;6.00;;;;;;;16.68;64.36;95801.75;5033047;28;20206;-88
2021/09/20 11:04:27;;;;;;;7.55;6.72;;;;;;;16.63;63.69;95809.34;5032625;28;20252;-88
2021/09/20 11:07:16;;;;;;;8.18;6.88;;;;;;;16.66;63.96;95809.75;5032494;28;20255;-88
2021/09/20 11:09:49;;;;;;;7.05;6.38;;;;;;;16.70;64.24;95810.94;5032744;28;20237;-88
2021/09/20 11:12:20;;;;;;;7.03;6.35;;;;;;;16.70;64.06;95805.75;5036772;28;20256;-88
2021/09/20 11:14:50;;;;;;;7.00;6.38;;;;;;;16.69;64.95;95809.34;5052236;28;20205;-88
2021/09/20 11:17:20;;;;;;;8.30;7.50;;;;;;;16.52;65.31;95803.81;5051981;28;20221;-88
2021/09/20 11:19:47;;;;;;;7.88;6.68;;;;;;;16.54;65.28;95814.00;5052280;28;20224;-88
2021/09/20 11:22:25;;;;;;;6.63;5.97;;;;;;;16.59;65.18;95820.16;5052486;28;20293;-88
2021/09/20 11:24:55;;;;;;;7.82;7.05;;;;;;;16.66;64.23;95809.75;5052550;28;20236;-88
2021/09/20 11:27:41;;;;;;;8.68;6.50;;;;;;;16.66;64.29;95812.34;5052896;28;20201;-88
2021/09/20 11:30:12;;;;;;;7.00;6.22;;;;;;;16.75;64.01;95813.69;5052374;28;20310;-88
2021/09/20 11:32:55;;;;;;;7.75;7.05;;;;;;;16.81;63.46;95810.25;5052402;28;20209;-89
2021/09/20 11:35:23;;;;;;;6.57;5.90;;;;;;;16.82;63.92;95809.25;5051997;28;20230;-88